Latest Weather Observations for Coconut Island

IDQ60801

Issued at 7:05 pm EST Wednesday 23 April 2014 (issued every 30 minutes, with the page automatically refreshed every 10 minutes)

About weather observations | Map of weather stations | Latest weather observations for QLD | Other Formats
Station Details ID: 027054 Name: COCONUT ISLAND Lat: -10.05 Lon: 143.07 Height: 3.5 m
Data from the previous 72 hours. | See also: Recent months at Coconut Island
Date/Time
EST
Temp
°C
App
Temp
°C
Dew
Point
Rel
Hum
%
Delta-T
°C
Wind Press
QNH
hPa
Press
MSL
hPa
Rain
since 9 am
mm
Dir
 
Spd
km/h
Gust
km/h
Spd
kts
Gust
kts
23/07:00pm 27.8 - - - - SSE 4 9 2 5 1008.2 1008.1 -
23/06:30pm 28.0 - - - - SSE 4 7 2 4 1007.9 - -
23/06:00pm 28.6 - - - - SSE 4 6 2 3 1007.6 1007.5 -
23/05:30pm 29.3 - - - - SSE 4 6 2 3 1007.3 - -
23/05:00pm 29.8 - - - - SSE 4 7 2 4 1007.1 1007.0 -
23/04:30pm 30.6 - - - - SSE 2 6 1 3 1007.0 - -
23/04:00pm 30.8 - - - - SSE 4 7 2 4 1006.9 1006.8 -
23/03:30pm 31.4 - - - - SSE 4 9 2 5 1007.2 - -
23/03:00pm 32.0 - - - - SSE 2 7 1 4 1007.6 1007.5 -
23/02:30pm 32.5 - - - - SE 6 13 3 7 1007.8 - -
23/02:00pm 32.4 - - - - SE 6 11 3 6 1008.0 1007.9 -
23/01:30pm 31.8 - - - - ESE 9 20 5 11 1008.3 - -
23/01:00pm 31.4 - - - - E 13 24 7 13 1008.8 1008.7 0.0
23/12:30pm 31.7 - - - - ESE 11 24 6 13 1008.9 - 0.0
23/12:00pm 31.3 - - - - E 11 20 6 11 1009.2 1009.1 0.0
23/11:30am 31.2 - - - - E 13 24 7 13 1009.5 - 0.0
23/11:00am 30.9 - - - - E 11 20 6 11 1009.7 1009.6 0.0
23/10:30am 30.2 - - - - E 11 20 6 11 1010.0 - 0.0
23/10:00am 30.7 - - - - E 13 20 7 11 1010.4 1010.3 0.0
23/09:30am 29.9 - - - - ESE 9 17 5 9 1010.8 - 0.0
23/09:00am 29.1 - - - - ESE 11 19 6 10 1010.4 1010.3 0.4
23/08:30am 29.3 - - - - ESE 9 17 5 9 1010.6 - 0.4
23/08:00am 28.4 - - - - ESE 9 17 5 9 1010.2 1010.1 0.4
23/07:30am 27.7 - - - - ESE 9 17 5 9 1009.9 - 0.4
23/07:00am 27.3 - - - - ESE 11 19 6 10 1009.5 1009.4 0.4
23/06:30am 27.1 - - - - ESE 11 24 6 13 1009.0 - 0.4
23/06:00am 27.0 - - - - ESE 11 22 6 12 1008.7 1008.6 0.4
23/05:30am 27.0 - - - - ESE 11 24 6 13 1008.5 - 0.4
23/05:00am 26.9 - - - - ESE 13 22 7 12 1008.2 1008.1 0.4
23/04:30am 26.9 - - - - E 13 24 7 13 1008.1 - 0.4
23/04:00am 26.8 - - - - ESE 13 22 7 12 1007.9 1007.8 0.4
23/03:30am 27.3 - - - - ESE 11 20 6 11 1008.0 - 0.2
23/03:00am 27.3 - - - - ESE 13 22 7 12 1008.0 1007.9 0.2
23/02:30am 27.1 - - - - ESE 13 22 7 12 1008.1 - 0.2
23/02:00am 27.3 - - - - ESE 11 22 6 12 1008.5 1008.4 0.2
23/01:30am 27.1 - - - - ESE 13 20 7 11 1008.7 - 0.2
23/01:00am 27.3 - - - - ESE 11 20 6 11 1009.0 1008.9 0.2
23/12:30am 27.4 - - - - ESE 9 24 5 13 1009.3 - 0.2
23/12:00am 27.3 - - - - ESE 11 19 6 10 1009.6 1009.5 0.2
 
Date/Time
EST
Temp
°C
App
Temp
°C
Dew
Point
Rel
Hum
%
Delta-T
°C
Wind Press
QNH
hPa
Press
MSL
hPa
Rain
since 9 am
mm
Dir
 
Spd
km/h
Gust
km/h
Spd
kts
Gust
kts
22/11:30pm 27.4 - - - - ESE 9 19 5 10 1009.9 - 0.2
22/11:00pm 27.4 - - - - ESE 11 19 6 10 1010.1 1010.0 0.2
22/10:30pm 27.5 - - - - ESE 11 19 6 10 1010.0 - 0.2
22/10:00pm 27.6 - - - - ESE 15 26 8 14 1010.2 1010.1 0.2
22/09:30pm 27.7 - - - - ESE 15 26 8 14 1010.2 - 0.2
22/09:00pm 27.6 - - - - ESE 13 26 7 14 1010.0 1009.9 0.2
22/08:30pm 27.9 - - - - ESE 13 24 7 13 1009.9 - 0.2
22/08:00pm 27.9 - - - - ESE 11 24 6 13 1009.9 1009.8 0.2
22/07:30pm 27.9 - - - - ESE 11 22 6 12 1009.3 - 0.2
22/07:00pm 28.1 - - - - ESE 11 20 6 11 1009.0 1008.9 0.2
22/06:30pm 28.3 - - - - SE 7 24 4 13 1008.6 - 0.2
22/06:00pm 28.6 - - - - ESE 9 19 5 10 1008.4 1008.3 0.2
22/05:30pm 29.4 - - - - E 11 20 6 11 1008.1 - 0.2
22/05:00pm 28.9 - - - - E 11 20 6 11 1007.8 1007.7 0.2
22/04:30pm 29.4 - - - - E 11 20 6 11 1007.5 - 0.2
22/04:00pm 29.9 - - - - E 13 24 7 13 1007.5 1007.4 0.2
22/03:30pm 30.1 - - - - E 13 22 7 12 1007.4 - 0.2
22/03:00pm 31.0 - - - - E 17 26 9 14 1007.6 1007.5 0.2
22/02:30pm 31.4 - - - - E 17 32 9 17 1007.7 - 0.2
22/02:00pm 31.1 - - - - E 15 32 8 17 1008.0 1007.9 0.2
22/01:30pm 30.9 - - - - E 13 20 7 11 1008.8 - 0.2
22/01:00pm 31.7 - - - - E 11 19 6 10 1009.1 1009.0 0.2
22/12:30pm 31.8 - - - - ESE 11 19 6 10 1009.6 - 0.2
22/12:00pm 31.0 - - - - ESE 11 22 6 12 1010.0 1009.9 0.2
22/11:30am 30.7 - - - - ESE 11 22 6 12 1010.4 - 0.2
22/11:00am 30.2 - - - - ESE 11 20 6 11 1010.7 1010.6 0.2
22/10:30am 31.2 - - - - E 11 19 6 10 1011.0 - 0.0
22/10:00am 30.8 - - - - E 9 17 5 9 1011.2 1011.1 0.0
22/09:30am 30.1 - - - - E 7 17 4 9 1011.3 - 0.0
22/09:00am 29.0 - - - - E 6 11 3 6 1011.0 1010.9 0.2
22/08:30am 29.1 - - - - E 7 11 4 6 1010.8 - 0.2
22/08:00am 27.8 - - - - ENE 6 11 3 6 1010.6 1010.5 0.2
22/07:30am 27.3 - - - - E 7 11 4 6 1010.2 - 0.2
22/07:00am 27.0 - - - - E 7 11 4 6 1009.7 1009.6 0.2
22/06:30am 26.9 - - - - E 7 11 4 6 1009.4 - 0.2
22/06:00am 27.1 - - - - E 7 13 4 7 1009.1 1009.0 0.2
22/05:30am 27.2 - - - - E 9 15 5 8 1009.1 - 0.2
22/05:00am 27.4 - - - - E 7 15 4 8 1009.0 1008.9 0.2
22/04:30am 27.4 - - - - E 9 15 5 8 1009.1 - 0.2
22/04:00am 27.3 - - - - E 9 17 5 9 1009.0 1008.9 0.2
22/03:30am 27.3 - - - - E 9 15 5 8 1009.0 - 0.2
22/03:00am 27.2 - - - - E 9 15 5 8 1009.2 1009.1 0.2
22/02:30am 27.2 - - - - E 9 19 5 10 1009.0 - 0.2
22/02:00am 27.0 - - - - E 9 19 5 10 1009.2 1009.1 0.2
22/01:30am 26.9 - - - - E 9 15 5 8 1009.5 - 0.2
22/01:00am 27.0 - - - - E 9 15 5 8 1009.9 1009.8 0.2
22/12:30am 27.4 - - - - ESE 9 17 5 9 1010.4 - 0.0
22/12:00am 27.3 - - - - ESE 9 17 5 9 1010.6 1010.5 0.0
 
Date/Time
EST
Temp
°C
App
Temp
°C
Dew
Point
Rel
Hum
%
Delta-T
°C
Wind Press
QNH
hPa
Press
MSL
hPa
Rain
since 9 am
mm
Dir
 
Spd
km/h
Gust
km/h
Spd
kts
Gust
kts
21/11:30pm 27.4 - - - - ESE 11 17 6 9 1010.5 - 0.0
21/11:00pm 27.2 - - - - ESE 9 22 5 12 1010.3 1010.2 0.0
21/10:30pm 27.3 - - - - ESE 9 20 5 11 1010.1 - 0.0
21/10:00pm 27.4 - - - - ESE 13 22 7 12 1010.4 1010.3 0.0
21/09:30pm 27.3 - - - - ESE 11 24 6 13 1010.2 - 0.0
21/09:00pm 27.4 - - - - SE 7 20 4 11 1010.1 1010.0 0.0
21/08:30pm 27.4 - - - - SE 7 15 4 8 1009.7 - 0.0
21/08:00pm 27.5 - - - - SE 6 17 3 9 1009.5 1009.4 0.0
21/07:30pm 27.8 - - - - SSE 6 9 3 5 1009.2 - 0.0
21/07:00pm 27.9 - - - - SSE 4 9 2 5 1008.9 1008.8 0.0
21/06:30pm 28.1 - - - - SSE 4 9 2 5 1008.7 - 0.0
21/06:00pm 28.4 - - - - SSE 4 6 2 3 1008.3 1008.2 0.0
21/05:30pm 28.8 - - - - SSE 4 11 2 6 1008.0 - 0.0
21/05:00pm 29.1 - - - - SE 6 17 3 9 1007.6 1007.5 0.0
21/04:30pm 29.6 - - - - SSE 4 11 2 6 1007.7 - 0.0
21/04:00pm 30.0 - - - - SSE 7 15 4 8 1007.7 1007.6 0.0
21/03:30pm 31.6 - - - - SE 6 13 3 7 1007.7 - 0.0
21/03:00pm 32.0 - - - - SSE 6 13 3 7 1007.6 1007.5 0.0
21/02:30pm 32.0 - - - - SSE 7 15 4 8 1007.7 - 0.0
21/02:00pm 32.8 - - - - SSE 4 11 2 6 1007.9 1007.8 0.0
21/01:30pm 32.0 - - - - SE 6 13 3 7 1008.2 - 0.0
21/01:00pm 31.0 - - - - SE 6 17 3 9 1008.4 1008.3 0.0
21/12:30pm 31.2 - - - - SSE 6 17 3 9 1008.7 - 0.0
21/12:00pm 31.4 - - - - SE 4 13 2 7 1009.3 1009.2 0.0
21/11:30am 30.8 - - - - SSE 6 13 3 7 1009.8 - 0.0
21/11:00am 30.7 - - - - SSE 6 15 3 8 1010.0 1009.9 0.0
21/10:30am 29.7 - - - - SE 7 17 4 9 1010.1 - 0.0
21/10:00am 29.6 - - - - SSE 4 11 2 6 1010.3 1010.2 0.0
21/09:30am 29.0 - - - - SE 6 13 3 7 1010.4 - 0.0
21/09:00am 28.8 - - - - SE 7 20 4 11 1010.0 1009.9 7.8
21/08:30am 28.1 - - - - ESE 13 26 7 14 1009.8 - 7.8
21/08:00am 27.5 - - - - SE 9 22 5 12 1009.6 1009.5 7.8
21/07:30am 27.2 - - - - ESE 13 24 7 13 1009.3 - 7.8
21/07:00am 26.9 - - - - ESE 15 28 8 15 1008.9 1008.8 7.8
21/06:30am 26.8 - - - - SE 11 22 6 12 1008.9 - 7.8
21/06:00am 26.8 - - - - SSE 7 17 4 9 1008.5 1008.4 7.8
21/05:30am 26.7 - - - - SE 9 22 5 12 1007.8 - 7.8
21/05:00am 26.7 - - - - SE 7 15 4 8 1007.8 1007.7 7.8
21/04:30am 26.5 - - - - SSE 6 13 3 7 1007.6 - 7.8
21/04:00am 26.5 - - - - SSE 6 11 3 6 1007.6 1007.5 7.8
21/03:30am 26.4 - - - - SE 9 22 5 12 1007.8 - 7.8
21/03:00am 26.6 - - - - SSE 6 11 3 6 1007.8 1007.7 7.8
21/02:30am 26.4 - - - - SSE 6 19 3 10 1008.0 - 7.8
21/02:00am 26.6 - - - - SSE 6 15 3 8 1008.2 1008.1 7.6
21/01:30am 26.6 - - - - SE 7 20 4 11 1008.3 - 7.4
21/01:00am 26.6 - - - - SSE 6 13 3 7 1008.4 1008.3 7.4
21/12:30am 26.6 - - - - SSE 7 15 4 8 1008.6 - 7.4
21/12:00am 26.6 - - - - SSE 7 17 4 9 1008.8 1008.7 7.4
 
Date/Time
EST
Temp
°C
App
Temp
°C
Dew
Point
Rel
Hum
%
Delta-T
°C
Wind Press
QNH
hPa
Press
MSL
hPa
Rain
since 9 am
mm
Dir
 
Spd
km/h
Gust
km/h
Spd
kts
Gust
kts
20/11:30pm 26.5 - - - - SSE 9 19 5 10 1009.3 - 7.4
20/11:00pm 26.4 - - - - SSE 7 19 4 10 1009.3 1009.2 7.4
20/10:30pm 26.4 - - - - SE 9 20 5 11 1009.5 - 7.4
20/10:00pm 26.5 - - - - SSE 7 19 4 10 1009.4 1009.3 7.4
20/09:30pm 26.5 - - - - SSE 9 19 5 10 1009.2 - 7.4
20/09:00pm 26.5 - - - - SSE 7 13 4 7 1009.4 1009.3 7.4
20/08:30pm 26.7 - - - - SSE 7 13 4 7 1009.1 - 7.4
20/08:00pm 26.6 - - - - SSE 7 20 4 11 1008.9 1008.8 7.4
20/07:30pm 26.5 - - - - SSE 7 15 4 8 1008.5 - 7.4

Other Formats:

Comma delimited format used in spreadsheet applications
http://www.bom.gov.au/fwo/IDQ60801/IDQ60801.94182.axf

JavaScript Object Notation format (JSON) in row-major order
http://www.bom.gov.au/fwo/IDQ60801/IDQ60801.94182.json